createdAt,value
2019-01-11T00:05:13.646Z,5.29
2019-01-11T00:08:02.587Z,5.27
2019-01-11T00:10:51.411Z,5.27
2019-01-11T00:13:20.905Z,5.27
2019-01-11T00:16:09.887Z,5.26
2019-01-11T00:19:19.606Z,4.74
2019-01-11T00:25:24.732Z,5.29
2019-01-11T00:28:13.636Z,5.30
2019-01-11T00:31:02.448Z,5.31
2019-01-11T00:33:31.952Z,5.33
2019-01-11T00:36:20.860Z,5.35
2019-01-11T00:39:09.832Z,5.34
2019-01-11T00:41:58.635Z,5.35
2019-01-11T00:44:47.482Z,5.37
2019-01-11T00:47:36.373Z,5.38
2019-01-11T00:50:25.209Z,5.40
2019-01-11T00:53:06.783Z,5.42
2019-01-11T00:55:36.277Z,5.43
2019-01-11T00:58:25.085Z,5.45
2019-01-11T01:01:13.992Z,5.45
2019-01-11T01:04:02.927Z,5.44
2019-01-11T01:06:51.759Z,5.45
2019-01-11T01:09:40.610Z,5.02
2019-01-11T01:12:29.497Z,5.44
2019-01-11T01:18:13.899Z,5.44
2019-01-11T01:21:02.790Z,5.46
2019-01-11T01:23:51.632Z,5.48
2019-01-11T01:29:49.993Z,5.50
2019-01-11T01:32:38.908Z,5.53
2019-01-11T01:35:27.715Z,5.53
2019-01-11T01:38:16.598Z,5.55
2019-01-11T01:41:05.430Z,5.54
2019-01-11T01:43:35.008Z,5.55
2019-01-11T01:46:23.846Z,5.54
2019-01-11T01:49:12.681Z,5.55
2019-01-11T01:51:54.338Z,5.56
2019-01-11T01:54:43.256Z,5.56
2019-01-11T01:57:32.166Z,5.57
2019-01-11T02:00:21.131Z,5.57
2019-01-11T02:03:10.021Z,5.57
2019-01-11T02:05:58.882Z,5.56
2019-01-11T02:08:47.759Z,5.54
2019-01-11T02:11:36.586Z,5.52
2019-01-11T02:14:25.452Z,5.05
2019-01-11T02:20:23.642Z,5.51
2019-01-11T02:23:12.461Z,5.51
2019-01-11T02:26:01.312Z,5.51
2019-01-11T02:28:50.150Z,5.50
2019-01-11T02:31:31.818Z,5.50
2019-01-11T02:34:20.665Z,5.08
2019-01-11T02:37:09.470Z,5.46
2019-01-11T02:39:58.297Z,5.46
2019-01-11T02:42:47.172Z,5.46
2019-01-11T02:45:36.009Z,5.46
2019-01-11T02:48:24.873Z,5.46
2019-01-11T02:51:13.687Z,5.47
2019-01-11T02:54:02.502Z,5.46
2019-01-11T02:56:51.434Z,5.46
2019-01-11T02:59:40.245Z,5.44
2019-01-11T03:02:22.325Z,5.42
2019-01-11T03:05:11.341Z,5.39
2019-01-11T03:08:20.861Z,5.36
2019-01-11T03:11:09.713Z,5.33
2019-01-11T03:13:58.553Z,5.33
2019-01-11T03:16:47.441Z,5.32
2019-01-11T03:19:36.340Z,5.32
2019-01-11T03:22:25.185Z,5.31
2019-01-11T03:28:29.658Z,5.31
2019-01-11T03:34:27.955Z,5.30
2019-01-11T03:37:16.863Z,5.30
2019-01-11T03:39:58.495Z,5.32
2019-01-11T03:42:47.364Z,5.31
2019-01-11T03:45:36.154Z,5.30
2019-01-11T03:48:25.000Z,5.32
2019-01-11T03:51:13.834Z,5.31
2019-01-11T03:54:02.709Z,5.32
2019-01-11T03:56:51.631Z,5.32
2019-01-11T03:59:40.640Z,5.04
2019-01-11T04:02:29.508Z,5.26
2019-01-11T04:05:18.353Z,5.32
2019-01-11T04:08:07.266Z,5.33
2019-01-11T04:10:56.094Z,5.33
2019-01-11T04:13:45.551Z,5.34
2019-01-11T04:16:34.435Z,5.33
2019-01-11T04:19:16.570Z,5.33
2019-01-11T04:28:00.894Z,5.14
2019-01-11T04:30:49.731Z,5.35
2019-01-11T04:33:38.517Z,5.36
2019-01-11T04:36:27.356Z,5.38
2019-01-11T04:39:16.188Z,5.40
2019-01-11T04:42:04.980Z,5.41
2019-01-11T04:47:49.469Z,5.42
2019-01-11T04:50:38.286Z,5.41
2019-01-11T04:53:19.939Z,5.41
2019-01-11T04:56:08.735Z,5.41
2019-01-11T04:58:57.641Z,5.42
2019-01-11T05:01:46.455Z,5.44
2019-01-11T05:04:35.348Z,5.44
2019-01-11T05:07:24.198Z,5.43
2019-01-11T05:10:33.946Z,5.43
2019-01-11T05:13:41.860Z,5.31
2019-01-11T05:16:30.759Z,5.44
2019-01-11T05:19:19.241Z,5.13
2019-01-11T05:22:08.179Z,5.47
2019-01-11T05:24:49.718Z,5.48
2019-01-11T05:27:38.632Z,5.50
2019-01-11T05:30:27.444Z,5.46
2019-01-11T05:33:16.328Z,5.53
2019-01-11T05:36:05.187Z,5.53
2019-01-11T05:38:34.706Z,5.55
2019-01-11T05:41:23.524Z,5.56
2019-01-11T05:44:12.434Z,5.02
2019-01-11T05:47:01.246Z,5.59
2019-01-11T05:49:50.094Z,5.60
2019-01-11T05:52:38.906Z,5.60
2019-01-11T05:55:46.762Z,5.61
2019-01-11T06:01:31.661Z,5.59
2019-01-11T06:04:39.514Z,5.57
2019-01-11T06:07:28.439Z,5.55
2019-01-11T06:10:17.345Z,5.52
2019-01-11T06:13:06.266Z,5.51
2019-01-11T06:15:55.221Z,5.51
2019-01-11T06:18:44.062Z,5.50
2019-01-11T06:21:32.916Z,5.51
2019-01-11T06:24:21.711Z,5.49
2019-01-11T06:27:10.563Z,5.49
2019-01-11T06:29:40.169Z,5.50
2019-01-11T06:32:29.070Z,5.51
2019-01-11T06:35:18.122Z,5.51
2019-01-11T06:37:47.672Z,5.53
2019-01-11T06:40:36.726Z,5.55
2019-01-11T06:43:25.642Z,5.54
2019-01-11T06:49:44.789Z,5.11
2019-01-11T06:52:26.970Z,5.54
2019-01-11T06:55:15.877Z,5.53
2019-01-11T06:58:04.941Z,5.50
2019-01-11T07:00:53.765Z,5.50
2019-01-11T07:03:42.689Z,5.48
2019-01-11T07:06:52.382Z,5.49
2019-01-11T07:09:41.288Z,5.50
2019-01-11T07:12:30.144Z,5.51
2019-01-11T07:14:59.594Z,5.53
2019-01-11T07:17:41.168Z,5.54
2019-01-11T07:20:29.995Z,5.11
2019-01-11T07:23:18.893Z,5.53
2019-01-11T07:26:07.743Z,5.53
2019-01-11T07:28:56.652Z,5.54
2019-01-11T07:34:44.969Z,5.52
2019-01-11T07:37:35.324Z,5.50
2019-01-11T07:40:24.205Z,5.48
2019-01-11T07:42:53.706Z,5.48
2019-01-11T07:45:42.605Z,5.48
2019-01-11T07:48:31.444Z,5.48
2019-01-11T07:51:20.286Z,5.48
2019-01-11T07:54:02.641Z,5.48
2019-01-11T07:59:46.885Z,5.47
2019-01-11T08:02:35.774Z,5.47
2019-01-11T08:05:27.405Z,5.47
2019-01-11T08:07:56.873Z,5.47
2019-01-11T08:10:45.704Z,5.48
2019-01-11T08:13:34.706Z,5.49
2019-01-11T08:16:23.587Z,5.53
2019-01-11T08:19:12.489Z,5.54
2019-01-11T08:22:01.364Z,5.57
2019-01-11T08:27:26.729Z,5.63
2019-01-11T08:33:37.825Z,5.67
2019-01-11T08:36:26.732Z,5.69
2019-01-11T08:39:15.556Z,5.50
2019-01-11T08:42:23.737Z,5.72
2019-01-11T08:45:13.927Z,5.73
2019-01-11T08:48:02.793Z,5.69
2019-01-11T08:50:51.640Z,5.77
2019-01-11T08:53:40.579Z,5.82
2019-01-11T08:56:10.285Z,5.84
2019-01-11T08:58:59.249Z,5.87
2019-01-11T09:01:48.137Z,5.54
2019-01-11T09:04:36.928Z,5.93
2019-01-11T09:07:25.770Z,5.95
2019-01-11T09:10:11.833Z,5.98
2019-01-11T09:12:41.396Z,6.01
2019-01-11T09:15:10.962Z,6.06
2019-01-11T09:18:18.803Z,6.07
2019-01-11T09:21:09.500Z,6.09
2019-01-11T09:23:58.472Z,6.13
2019-01-11T09:27:07.979Z,5.94
2019-01-11T09:29:58.620Z,6.19
2019-01-11T09:32:47.597Z,6.24
2019-01-11T09:35:17.069Z,6.28
2019-01-11T09:38:06.061Z,6.32
2019-01-11T09:40:54.947Z,6.36
2019-01-11T09:43:43.852Z,6.42
2019-01-11T09:46:32.679Z,6.47
2019-01-11T09:49:21.528Z,6.52
2019-01-11T09:51:51.018Z,6.57
2019-01-11T09:54:39.832Z,6.61
2019-01-11T09:57:28.664Z,6.65
2019-01-11T10:00:38.379Z,6.70
2019-01-11T10:03:08.015Z,6.74
2019-01-11T10:05:50.085Z,6.80
2019-01-11T10:08:19.584Z,6.83
2019-01-11T10:10:49.215Z,6.84
2019-01-11T10:13:38.083Z,6.86
2019-01-11T10:16:07.687Z,6.88
2019-01-11T10:18:56.521Z,6.92
2019-01-11T10:21:45.324Z,6.95
2019-01-11T10:24:34.235Z,7.00
2019-01-11T10:27:22.711Z,7.03
2019-01-11T10:30:31.989Z,7.07
2019-01-11T10:33:01.468Z,7.10
2019-01-11T10:35:50.574Z,7.14
2019-01-11T10:38:39.494Z,7.16
2019-01-11T10:41:28.301Z,7.19
2019-01-11T10:44:17.232Z,7.22
2019-01-11T10:47:06.115Z,7.25
2019-01-11T10:49:54.953Z,7.29
2019-01-11T10:52:43.897Z,7.32
2019-01-11T10:58:48.896Z,7.39
2019-01-11T11:01:37.752Z,7.43
2019-01-11T11:04:26.626Z,7.44
2019-01-11T11:07:15.487Z,7.45
2019-01-11T11:10:25.659Z,7.48
2019-01-11T11:13:35.138Z,7.50
2019-01-11T11:16:04.624Z,7.52
2019-01-11T11:18:53.516Z,7.56
2019-01-11T11:22:10.489Z,7.18
2019-01-11T11:24:59.355Z,7.62
2019-01-11T11:27:39.105Z,7.65
2019-01-11T11:30:27.932Z,7.68
2019-01-11T11:33:16.801Z,7.70
2019-01-11T11:35:46.424Z,7.71
2019-01-11T11:38:35.296Z,7.73
2019-01-11T11:41:24.222Z,7.54
2019-01-11T11:43:53.690Z,7.77
2019-01-11T11:46:42.651Z,7.78
2019-01-11T11:49:12.125Z,7.81
2019-01-11T11:51:41.727Z,7.83
2019-01-11T11:54:30.651Z,7.86
2019-01-11T11:57:19.482Z,7.87
2019-01-11T12:00:27.711Z,7.90
2019-01-11T12:03:09.425Z,7.93
2019-01-11T12:05:58.324Z,7.97
2019-01-11T12:08:47.216Z,8.00
2019-01-11T12:11:36.092Z,8.03
2019-01-11T12:14:24.891Z,8.06
2019-01-11T12:17:13.839Z,8.09
2019-01-11T12:20:02.745Z,8.11
2019-01-11T12:22:51.616Z,8.11
2019-01-11T12:25:52.769Z,8.12
2019-01-11T12:28:24.141Z,7.95
2019-01-11T12:31:13.078Z,8.14
2019-01-11T12:34:01.910Z,8.15
2019-01-11T12:36:50.721Z,8.16
2019-01-11T12:39:39.583Z,8.19
2019-01-11T12:42:30.290Z,8.19
2019-01-11T12:45:19.128Z,8.22
2019-01-11T12:48:08.128Z,8.26
2019-01-11T12:50:37.618Z,7.83
2019-01-11T12:53:47.200Z,8.31
2019-01-11T12:56:28.564Z,8.34
2019-01-11T12:59:17.485Z,8.40
2019-01-11T13:02:06.388Z,8.42
2019-01-11T13:04:35.913Z,8.44
2019-01-11T13:07:05.467Z,8.47
2019-01-11T13:09:53.957Z,8.49
2019-01-11T13:12:42.480Z,8.50
2019-01-11T13:15:32.900Z,8.53
2019-01-11T13:18:33.782Z,8.55
2019-01-11T13:21:12.441Z,8.55
2019-01-11T13:24:01.360Z,8.07
2019-01-11T13:29:40.043Z,8.59
2019-01-11T13:32:28.923Z,8.59
2019-01-11T13:35:17.980Z,8.59
2019-01-11T13:38:06.903Z,8.62
2019-01-11T13:40:55.718Z,8.58
2019-01-11T13:43:44.623Z,8.64
2019-01-11T13:46:33.468Z,8.67
2019-01-11T13:49:22.327Z,8.70
2019-01-11T13:52:11.214Z,8.73
2019-01-11T13:55:00.234Z,8.75
2019-01-11T13:57:49.120Z,8.77
2019-01-11T14:00:38.021Z,8.79
2019-01-11T14:03:26.890Z,8.80
2019-01-11T14:06:15.842Z,8.82
2019-01-11T14:09:25.562Z,8.83
2019-01-11T14:11:55.069Z,8.84
2019-01-11T14:14:43.912Z,8.86
2019-01-11T14:17:32.750Z,8.86
2019-01-11T14:20:21.645Z,8.87
2019-01-11T14:23:10.581Z,8.89
2019-01-11T14:25:59.510Z,8.91
2019-01-11T14:28:40.817Z,8.92
2019-01-11T14:31:29.732Z,8.95
2019-01-11T14:34:18.551Z,8.96
2019-01-11T14:37:07.384Z,8.97
2019-01-11T14:39:56.285Z,8.98
2019-01-11T14:42:45.294Z,8.97
2019-01-11T14:45:55.052Z,8.98
2019-01-11T14:48:43.872Z,8.99
2019-01-11T14:54:40.619Z,9.01
2019-01-11T14:57:10.209Z,9.02
2019-01-11T14:59:59.059Z,9.03
2019-01-11T15:02:48.018Z,9.03
2019-01-11T15:05:36.873Z,9.04
2019-01-11T15:08:25.746Z,8.88
2019-01-11T15:11:14.646Z,9.08
2019-01-11T15:13:44.196Z,9.10
2019-01-11T15:16:33.115Z,9.10
2019-01-11T15:19:21.937Z,9.11
2019-01-11T15:22:10.881Z,9.12
2019-01-11T15:24:59.662Z,8.96
2019-01-11T15:27:48.516Z,9.16
2019-01-11T15:30:28.551Z,9.16
2019-01-11T15:33:17.391Z,9.18
2019-01-11T15:36:06.351Z,9.18
2019-01-11T15:38:55.286Z,9.19
2019-01-11T15:41:44.089Z,9.18
2019-01-11T15:44:32.928Z,9.20
2019-01-11T15:47:21.742Z,9.21
2019-01-11T15:50:31.471Z,8.90
2019-01-11T15:53:00.948Z,9.24
2019-01-11T15:55:43.040Z,9.26
2019-01-11T15:58:31.863Z,9.29
2019-01-11T16:01:20.886Z,9.30
2019-01-11T16:04:09.812Z,9.31
2019-01-11T16:06:58.701Z,8.94
2019-01-11T16:10:06.676Z,9.32
2019-01-11T16:12:55.631Z,9.33
2019-01-11T16:16:05.410Z,9.17
2019-01-11T16:18:57.303Z,9.37
2019-01-11T16:21:46.125Z,9.11
2019-01-11T16:24:15.621Z,9.42
2019-01-11T16:27:04.513Z,9.46
2019-01-11T16:29:53.378Z,9.47
2019-01-11T16:32:42.267Z,9.50
2019-01-11T16:35:31.211Z,9.53
2019-01-11T16:38:20.149Z,9.56
2019-01-11T16:41:09.054Z,9.59
2019-01-11T16:43:57.998Z,9.61
2019-01-11T16:46:46.903Z,9.25
2019-01-11T16:49:50.006Z,9.65
2019-01-11T16:52:27.779Z,9.65
2019-01-11T16:55:16.700Z,9.65
2019-01-11T16:57:58.341Z,9.65
2019-01-11T17:00:47.467Z,9.64
2019-01-11T17:06:45.781Z,9.64
2019-01-11T17:09:34.665Z,9.65
2019-01-11T17:12:23.564Z,9.67
2019-01-11T17:15:31.801Z,9.69
2019-01-11T17:18:20.713Z,9.71
2019-01-11T17:21:30.471Z,9.72
2019-01-11T17:24:19.347Z,9.74
2019-01-11T17:27:08.275Z,9.76
2019-01-11T17:29:57.096Z,9.77
2019-01-11T17:32:46.096Z,9.67
2019-01-11T17:35:34.952Z,9.81
2019-01-11T17:38:23.795Z,9.80
2019-01-11T17:41:12.734Z,9.79
2019-01-11T17:44:01.621Z,9.78
2019-01-11T17:46:50.544Z,9.77
2019-01-11T17:49:39.484Z,9.78
2019-01-11T17:52:28.357Z,9.78
2019-01-11T17:54:57.872Z,9.77
2019-01-11T17:57:39.715Z,9.78
2019-01-11T18:00:47.846Z,9.78
2019-01-11T18:03:36.720Z,9.79
2019-01-11T18:06:25.550Z,9.41
2019-01-11T18:09:14.393Z,9.78
2019-01-11T18:12:03.359Z,9.78
2019-01-11T18:14:52.271Z,9.41
2019-01-11T18:17:41.190Z,9.78
2019-01-11T18:20:30.527Z,9.79
2019-01-11T18:23:06.539Z,9.41
2019-01-11T18:25:50.832Z,9.78
2019-01-11T18:28:39.746Z,9.78
2019-01-11T18:31:28.634Z,9.77
2019-01-11T18:34:17.543Z,9.79
2019-01-11T18:37:06.510Z,9.60
2019-01-11T18:39:57.848Z,9.80
2019-01-11T18:42:26.711Z,9.81
2019-01-11T18:45:15.782Z,9.82
2019-01-11T18:48:04.757Z,9.81
2019-01-11T18:50:53.311Z,9.63
2019-01-11T18:53:42.212Z,9.82
2019-01-11T18:56:23.980Z,9.82
2019-01-11T18:59:33.753Z,9.84
2019-01-11T19:02:22.637Z,9.83
2019-01-11T19:08:27.363Z,9.77
2019-01-11T19:11:16.273Z,9.82
2019-01-11T19:13:45.893Z,9.80
2019-01-11T19:16:55.655Z,9.80
2019-01-11T19:19:44.510Z,9.76
2019-01-11T19:22:14.145Z,9.81
2019-01-11T19:25:03.096Z,9.82
2019-01-11T19:27:52.071Z,9.65
2019-01-11T19:30:40.889Z,9.84
2019-01-11T19:33:22.824Z,9.38
2019-01-11T19:36:11.666Z,9.86
2019-01-11T19:39:00.675Z,9.53
2019-01-11T19:41:49.574Z,9.85
2019-01-11T19:44:38.515Z,9.84
2019-01-11T19:47:29.863Z,9.79
2019-01-11T19:50:38.052Z,9.83
2019-01-11T19:53:27.714Z,9.81
2019-01-11T19:56:10.586Z,9.80
2019-01-11T19:58:59.427Z,9.32
2019-01-11T20:01:48.263Z,9.78
2019-01-11T20:04:37.187Z,9.76
2019-01-11T20:07:29.181Z,9.76
2019-01-11T20:10:38.911Z,9.76
2019-01-11T20:13:27.771Z,9.75
2019-01-11T20:16:16.770Z,9.74
2019-01-11T20:18:46.376Z,9.71
2019-01-11T20:21:35.240Z,9.70
2019-01-11T20:24:24.095Z,9.69
2019-01-11T20:27:12.987Z,9.66
2019-01-11T20:30:01.900Z,9.65
2019-01-11T20:32:50.889Z,9.63
2019-01-11T20:35:39.772Z,9.63
2019-01-11T20:38:28.710Z,9.64
2019-01-11T20:41:17.679Z,9.64
2019-01-11T20:44:06.606Z,9.62
2019-01-11T20:46:55.569Z,9.60
2019-01-11T20:49:44.465Z,9.58
2019-01-11T20:52:25.851Z,9.56
2019-01-11T20:55:33.941Z,9.54
2019-01-11T20:58:22.777Z,9.53
2019-01-11T21:04:07.390Z,9.50
2019-01-11T21:10:26.630Z,9.48
2019-01-11T21:13:15.647Z,9.48
2019-01-11T21:16:05.426Z,9.46
2019-01-11T21:18:54.388Z,9.46
2019-01-11T21:21:43.240Z,9.48
2019-01-11T21:24:32.238Z,9.46
2019-01-11T21:27:21.196Z,9.45
2019-01-11T21:30:30.984Z,9.44
2019-01-11T21:33:19.862Z,9.45
2019-01-11T21:36:08.791Z,9.45
2019-01-11T21:38:57.379Z,9.43
2019-01-11T21:41:46.296Z,9.41
2019-01-11T21:44:15.881Z,9.40
2019-01-11T21:47:04.826Z,9.38
2019-01-11T21:49:53.764Z,9.23
2019-01-11T21:52:35.297Z,9.36
2019-01-11T21:55:24.214Z,9.35
2019-01-11T21:58:13.030Z,9.36
2019-01-11T22:01:01.927Z,9.36
2019-01-11T22:03:50.781Z,9.37
2019-01-11T22:06:39.713Z,9.36
2019-01-11T22:09:28.553Z,9.35
2019-01-11T22:12:17.421Z,9.34
2019-01-11T22:15:27.125Z,9.33
2019-01-11T22:18:16.126Z,9.32
2019-01-11T22:20:45.628Z,9.32
2019-01-11T22:23:34.092Z,9.32
2019-01-11T22:26:23.102Z,9.32
2019-01-11T22:29:12.037Z,9.33
2019-01-11T22:32:00.854Z,8.95
2019-01-11T22:34:42.652Z,9.32
2019-01-11T22:37:31.516Z,9.32
2019-01-11T22:43:30.374Z,9.32
2019-01-11T22:46:19.237Z,9.33
2019-01-11T22:49:08.107Z,9.32
2019-01-11T22:51:57.082Z,9.33
2019-01-11T22:54:45.911Z,9.35
2019-01-11T22:57:34.802Z,9.36
2019-01-11T23:01:02.355Z,9.37
2019-01-11T23:03:51.325Z,9.37
2019-01-11T23:07:01.078Z,8.95
2019-01-11T23:09:49.946Z,9.39
2019-01-11T23:12:59.690Z,9.40
2019-01-11T23:15:48.676Z,9.41
2019-01-11T23:18:37.610Z,9.42
2019-01-11T23:21:26.433Z,9.42
2019-01-11T23:24:17.620Z,9.43
2019-01-11T23:27:05.883Z,9.42
2019-01-11T23:29:54.798Z,9.42
2019-01-11T23:32:36.139Z,9.41
2019-01-11T23:35:18.387Z,9.40
2019-01-11T23:38:07.178Z,9.39
2019-01-11T23:40:56.018Z,9.38
2019-01-11T23:43:44.914Z,9.37
2019-01-11T23:46:14.427Z,9.36
2019-01-11T23:49:03.236Z,9.34
2019-01-11T23:51:52.147Z,9.33
2019-01-11T23:54:41.042Z,9.31
2019-01-11T23:57:29.871Z,9.30
